createdAt,value
2022-09-06T00:01:54.558Z,0.16
2022-09-06T00:03:34.316Z,0.16
2022-09-06T00:05:14.092Z,0.17
2022-09-06T00:06:53.852Z,0.17
2022-09-06T00:08:33.626Z,0.16
2022-09-06T00:10:13.385Z,0.18
2022-09-06T00:11:53.156Z,0.16
2022-09-06T00:13:32.937Z,0.18
2022-09-06T00:15:12.699Z,0.19
2022-09-06T00:18:32.219Z,0.16
2022-09-06T00:20:11.999Z,0.17
2022-09-06T00:21:51.774Z,0.19
2022-09-06T00:23:31.546Z,0.16
2022-09-06T00:25:11.296Z,0.17
2022-09-06T00:28:30.826Z,0.18
2022-09-06T00:30:10.609Z,0.18
2022-09-06T00:31:50.358Z,0.19
2022-09-06T00:33:30.147Z,0.17
2022-09-06T00:35:09.902Z,0.19
2022-09-06T00:38:29.434Z,0.17
2022-09-06T00:40:09.211Z,0.17
2022-09-06T00:41:48.968Z,0.16
2022-09-06T00:43:28.756Z,0.16
2022-09-06T00:45:08.514Z,0.17
2022-09-06T00:48:28.057Z,0.18
2022-09-06T00:50:07.816Z,0.17
2022-09-06T00:51:47.576Z,0.16
2022-09-06T00:53:27.368Z,0.19
2022-09-06T00:55:07.115Z,0.17
2022-09-06T00:58:26.653Z,0.16
2022-09-06T01:00:06.418Z,0.18
2022-09-06T01:03:25.951Z,0.16
2022-09-06T01:05:05.715Z,0.18
2022-09-06T01:08:25.248Z,0.18
2022-09-06T01:10:05.021Z,0.17
2022-09-06T01:11:44.795Z,0.17
2022-09-06T01:13:24.553Z,0.18
2022-09-06T01:18:23.867Z,0.16
2022-09-06T01:20:03.622Z,0.17
2022-09-06T01:21:43.414Z,0.16
2022-09-06T01:25:02.922Z,0.16
2022-09-06T01:26:42.700Z,0.18
2022-09-06T01:30:02.227Z,0.19
2022-09-06T01:31:41.987Z,0.16
2022-09-06T01:33:21.764Z,0.19
2022-09-06T01:35:01.535Z,0.17
2022-09-06T01:38:21.073Z,0.17
2022-09-06T01:40:00.827Z,0.19
2022-09-06T01:41:40.609Z,0.17
2022-09-06T01:43:20.368Z,0.19
2022-09-06T01:45:00.139Z,0.17
2022-09-06T01:48:19.674Z,0.2
2022-09-06T01:49:59.434Z,0.19
2022-09-06T01:51:39.202Z,0.17
2022-09-06T01:54:58.744Z,0.19
2022-09-06T01:58:18.273Z,0.19
2022-09-06T01:59:58.038Z,0.19
2022-09-06T02:01:37.807Z,0.18
2022-09-06T02:03:17.620Z,0.17
2022-09-06T02:04:57.348Z,0.16
2022-09-06T02:06:37.118Z,0.16
2022-09-06T02:08:16.875Z,0.18
2022-09-06T02:09:56.662Z,0.16
2022-09-06T02:11:36.415Z,0.17
2022-09-06T02:13:16.187Z,0.17
2022-09-06T02:14:55.953Z,0.19
2022-09-06T02:18:15.488Z,0.17
2022-09-06T02:19:55.257Z,0.16
2022-09-06T02:21:35.025Z,0.19
2022-09-06T02:23:14.777Z,0.18
2022-09-06T02:26:34.313Z,0.19
2022-09-06T02:28:14.094Z,0.16
2022-09-06T02:31:33.619Z,0.19
2022-09-06T02:33:13.401Z,0.18
2022-09-06T02:34:53.164Z,0.19
2022-09-06T02:38:12.700Z,0.16
2022-09-06T02:39:52.463Z,0.17
2022-09-06T02:41:32.219Z,0.17
2022-09-06T02:43:11.988Z,0.2
2022-09-06T02:44:51.767Z,0.2
2022-09-06T02:48:11.316Z,0.21
2022-09-06T02:49:51.074Z,0.2
2022-09-06T02:51:30.831Z,0.16
2022-09-06T02:53:10.606Z,0.2
2022-09-06T02:54:50.357Z,0.19
2022-09-06T02:58:09.919Z,0.17
2022-09-06T02:59:49.679Z,0.21
2022-09-06T03:01:29.454Z,0.19
2022-09-06T03:04:48.985Z,0.17
2022-09-06T03:08:08.510Z,0.18
2022-09-06T03:09:48.269Z,0.2
2022-09-06T03:11:28.047Z,0.17
2022-09-06T03:13:07.808Z,0.19
2022-09-06T03:14:47.574Z,0.19
2022-09-06T03:18:07.107Z,0.23
2022-09-06T03:19:46.877Z,0.23
2022-09-06T03:21:26.649Z,0.22
2022-09-06T03:23:06.418Z,0.23
2022-09-06T03:24:46.190Z,0.26
2022-09-06T03:26:25.942Z,0.26
2022-09-06T03:28:05.708Z,0.32
2022-09-06T03:29:45.485Z,0.33
2022-09-06T03:33:05.013Z,0.45
2022-09-06T03:34:44.791Z,0.55
2022-09-06T03:38:04.320Z,0.78
2022-09-06T03:39:44.091Z,0.97
2022-09-06T03:41:23.863Z,1.23
2022-09-06T03:44:43.392Z,2.01
2022-09-06T03:48:02.933Z,3.5
2022-09-06T03:49:42.702Z,4.6
2022-09-06T03:51:22.464Z,6.06
2022-09-06T03:53:02.223Z,7.91
2022-09-06T03:54:41.998Z,10.33
2022-09-06T03:58:01.536Z,16.87
2022-09-06T03:59:41.281Z,20.98
2022-09-06T04:01:21.039Z,25.52
2022-09-06T04:04:40.587Z,26.87
2022-09-06T04:06:20.343Z,26.9
2022-09-06T04:08:00.105Z,26.91
2022-09-06T04:09:39.862Z,26.92
2022-09-06T04:11:19.643Z,26.92
2022-09-06T04:14:39.158Z,26.93
2022-09-06T04:16:18.936Z,26.93
2022-09-06T04:17:58.688Z,26.86
2022-09-06T04:19:38.475Z,26.94
2022-09-06T04:21:18.224Z,26.95
2022-09-06T04:22:57.981Z,26.96
2022-09-06T04:24:37.753Z,26.97
2022-09-06T04:27:57.283Z,26.99
2022-09-06T04:29:37.041Z,26.99
2022-09-06T04:31:16.807Z,26.99
2022-09-06T04:32:56.579Z,27
2022-09-06T04:34:36.330Z,27.02
2022-09-06T04:37:55.874Z,27.04
2022-09-06T04:39:35.625Z,27.04
2022-09-06T04:41:15.409Z,27.05
2022-09-06T04:42:55.168Z,27.06
2022-09-06T04:44:34.930Z,27.08
2022-09-06T04:46:14.706Z,27.1
2022-09-06T04:47:54.453Z,27.11
2022-09-06T04:49:34.239Z,27.13
2022-09-06T04:51:13.996Z,27.14
2022-09-06T04:52:53.758Z,27.18
2022-09-06T04:54:33.528Z,27.19
2022-09-06T04:57:53.050Z,27.24
2022-09-06T04:59:32.839Z,27.28
2022-09-06T05:01:12.599Z,27.32
2022-09-06T05:02:52.375Z,27.36
2022-09-06T05:04:32.143Z,50.33
2022-09-06T05:07:51.687Z,27.5
2022-09-06T05:09:31.450Z,27.54
2022-09-06T05:11:11.216Z,27.55
2022-09-06T05:12:50.996Z,27.58
2022-09-06T05:14:30.769Z,27.61
2022-09-06T05:16:10.543Z,27.63
2022-09-06T05:17:50.297Z,27.66
2022-09-06T05:19:30.081Z,27.69
2022-09-06T05:21:09.832Z,27.73
2022-09-06T05:22:49.622Z,27.74
2022-09-06T05:24:29.389Z,27.78
2022-09-06T05:26:09.233Z,27.8
2022-09-06T05:27:48.932Z,27.84
2022-09-06T05:29:28.702Z,27.88
2022-09-06T05:31:08.469Z,27.92
2022-09-06T05:32:48.245Z,27.89
2022-09-06T05:34:28.008Z,28.03
2022-09-06T05:37:47.554Z,28.14
2022-09-06T05:39:27.332Z,28.18
2022-09-06T05:41:07.083Z,28.22
2022-09-06T05:42:46.859Z,28.29
2022-09-06T05:44:26.631Z,28.36
2022-09-06T05:46:06.404Z,28.41
2022-09-06T05:47:46.159Z,28.5
2022-09-06T05:49:25.945Z,28.61
2022-09-06T05:51:05.703Z,28.7
2022-09-06T05:52:45.484Z,28.15
2022-09-06T05:54:25.238Z,28.17
2022-09-06T05:57:44.785Z,28.36
2022-09-06T05:59:24.565Z,28.46
2022-09-06T06:01:04.338Z,28.54
2022-09-06T06:02:44.090Z,28.56
2022-09-06T06:04:23.876Z,53.99
2022-09-06T06:06:03.639Z,71.97
2022-09-06T06:09:23.170Z,75.86
2022-09-06T06:11:02.963Z,76.29
2022-09-06T06:12:42.726Z,70.64
2022-09-06T06:14:22.478Z,51.74
2022-09-06T06:16:02.260Z,49.17
2022-09-06T06:17:42.019Z,50.3
2022-09-06T06:19:21.795Z,82.21
2022-09-06T06:21:01.573Z,82.26
2022-09-06T06:22:41.342Z,82.66
2022-09-06T06:24:21.115Z,81.76
2022-09-06T06:27:40.657Z,82.67
2022-09-06T06:29:20.426Z,82.92
2022-09-06T06:31:00.201Z,83.35
2022-09-06T06:32:39.958Z,83.05
2022-09-06T06:34:19.733Z,82.97
2022-09-06T06:35:59.491Z,83.66
2022-09-06T06:37:39.310Z,83.59
2022-09-06T06:39:19.048Z,83.76
2022-09-06T06:40:58.816Z,84.05
2022-09-06T06:42:38.581Z,84.57
2022-09-06T06:44:18.353Z,84.7
2022-09-06T06:47:37.900Z,85.07
2022-09-06T06:49:17.653Z,85.08
2022-09-06T06:50:57.425Z,84.72
2022-09-06T06:52:37.209Z,84.9
2022-09-06T06:54:16.967Z,84.89
2022-09-06T06:55:56.748Z,85.1
2022-09-06T06:57:36.521Z,85.07
2022-09-06T06:59:16.302Z,85.12
2022-09-06T07:00:56.067Z,85.16
2022-09-06T07:02:35.850Z,85.13
2022-09-06T07:04:15.599Z,84.92
2022-09-06T07:07:35.156Z,85.4
2022-09-06T07:17:33.770Z,85.55
2022-09-06T07:37:31.000Z,84.76
2022-09-06T07:42:30.315Z,85.06
2022-09-06T07:44:10.093Z,85.49
2022-09-06T07:47:29.639Z,85.93
2022-09-06T07:49:09.413Z,86
2022-09-06T07:50:49.179Z,85.3
2022-09-06T07:52:28.939Z,85.19
2022-09-06T07:54:08.736Z,84.76
2022-09-06T07:57:28.251Z,85.52
2022-09-06T07:59:08.015Z,85.55
2022-09-06T08:00:47.796Z,85.15
2022-09-06T08:02:27.559Z,84.55
2022-09-06T08:04:07.327Z,86.69
2022-09-06T08:07:26.893Z,85.58
2022-09-06T08:09:06.649Z,84.17
2022-09-06T08:10:46.422Z,85.35
2022-09-06T08:12:26.185Z,84.56
2022-09-06T08:14:05.962Z,83.98
2022-09-06T08:15:45.760Z,84.85
2022-09-06T08:17:25.497Z,85.1
2022-09-06T08:19:05.257Z,85.46
2022-09-06T08:20:45.047Z,86.28
2022-09-06T08:22:24.814Z,85.6
2022-09-06T08:24:04.576Z,85.36
2022-09-06T08:27:24.130Z,84.89
2022-09-06T08:29:03.883Z,85.33
2022-09-06T08:30:43.672Z,85.92
2022-09-06T08:32:23.430Z,84.76
2022-09-06T08:34:03.213Z,84.5
2022-09-06T08:35:42.965Z,84.94
2022-09-06T08:37:22.736Z,85.25
2022-09-06T08:39:02.519Z,86.18
2022-09-06T08:40:42.276Z,86.1
2022-09-06T08:42:22.060Z,85.29
2022-09-06T08:44:01.835Z,85.6
2022-09-06T08:45:41.610Z,83.71
2022-09-06T08:47:21.369Z,83.95
2022-09-06T08:49:01.141Z,85.05
2022-09-06T08:50:40.925Z,84.42
2022-09-06T08:52:20.677Z,84.11
2022-09-06T08:54:00.448Z,85.24
2022-09-06T08:57:19.989Z,84.37
2022-09-06T08:58:59.770Z,84.94
2022-09-06T09:00:39.531Z,85.57
2022-09-06T09:02:19.312Z,85.74
2022-09-06T09:03:59.083Z,85.33
2022-09-06T09:05:38.836Z,84.62
2022-09-06T09:07:18.609Z,84.58
2022-09-06T09:08:58.388Z,84.66
2022-09-06T09:12:17.916Z,85.33
2022-09-06T09:13:57.694Z,84.69
2022-09-06T09:15:37.471Z,84.75
2022-09-06T09:17:17.233Z,85.02
2022-09-06T09:18:56.992Z,85.7
2022-09-06T09:20:36.756Z,85.71
2022-09-06T09:22:16.541Z,85.76
2022-09-06T09:23:56.314Z,87.17
2022-09-06T09:25:36.068Z,85.58
2022-09-06T09:27:15.855Z,85.48
2022-09-06T09:28:55.616Z,85.56
2022-09-06T09:30:35.378Z,85.81
2022-09-06T09:32:15.174Z,85.89
2022-09-06T09:33:54.926Z,85.87
2022-09-06T09:35:34.695Z,85.85
2022-09-06T09:37:14.484Z,86.34
2022-09-06T09:38:54.288Z,86.61
2022-09-06T09:40:34.046Z,86.26
2022-09-06T09:42:13.787Z,85.64
2022-09-06T09:43:53.561Z,85.58
2022-09-06T09:45:33.351Z,85.08
2022-09-06T09:47:13.102Z,85.12
2022-09-06T09:48:52.865Z,84.96
2022-09-06T09:50:32.634Z,85.05
2022-09-06T09:52:12.404Z,85.73
2022-09-06T09:53:52.177Z,85.94
2022-09-06T09:57:11.714Z,85.25
2022-09-06T09:58:51.483Z,84.81
2022-09-06T10:00:31.255Z,84.95
2022-09-06T10:02:11.039Z,85.24
2022-09-06T10:03:50.814Z,85.13
2022-09-06T10:05:30.575Z,84.76
2022-09-06T10:07:10.349Z,84.61
2022-09-06T10:08:50.111Z,84.6
2022-09-06T10:10:29.869Z,84.6
2022-09-06T10:12:09.647Z,84.73
2022-09-06T10:17:08.961Z,85.7
2022-09-06T10:18:48.724Z,85.25
2022-09-06T10:20:28.502Z,84.98
2022-09-06T10:22:08.268Z,84.08
2022-09-06T10:23:48.118Z,84.33
2022-09-06T10:25:27.812Z,84.42
2022-09-06T10:27:07.586Z,84.46
2022-09-06T10:28:47.361Z,84.32
2022-09-06T10:30:27.124Z,84.25
2022-09-06T10:32:06.881Z,84.21
2022-09-06T10:33:46.659Z,84.07
2022-09-06T10:37:06.203Z,83.95
2022-09-06T10:38:45.973Z,84.02
2022-09-06T10:40:25.750Z,83.95
2022-09-06T10:42:05.513Z,83.97
2022-09-06T10:43:45.295Z,83.99
2022-09-06T10:45:25.066Z,84.09
2022-09-06T10:47:04.832Z,84.26
2022-09-06T10:48:44.602Z,84.44
2022-09-06T10:50:24.368Z,84.51
2022-09-06T10:52:04.138Z,84.7
2022-09-06T10:53:43.898Z,84.8
2022-09-06T10:57:03.445Z,84.99
2022-09-06T10:58:43.227Z,85.04
2022-09-06T11:00:22.979Z,85.03
2022-09-06T11:02:02.766Z,85.21
2022-09-06T11:03:42.531Z,85.26
2022-09-06T11:05:22.303Z,85.37
2022-09-06T11:07:02.069Z,85.37
2022-09-06T11:08:41.850Z,85.42
2022-09-06T11:10:21.605Z,85.44
2022-09-06T11:12:01.384Z,84.84
2022-09-06T11:13:41.143Z,85.11
2022-09-06T11:15:20.914Z,84.99
2022-09-06T11:17:00.692Z,85.43
2022-09-06T11:18:40.466Z,85.14
2022-09-06T11:20:20.225Z,84.46
2022-09-06T11:21:59.991Z,84.9
2022-09-06T11:23:39.771Z,84.69
2022-09-06T11:25:19.534Z,85.63
2022-09-06T11:26:59.316Z,85.31
2022-09-06T11:28:39.077Z,84.77
2022-09-06T11:30:18.855Z,84.47
2022-09-06T11:31:58.626Z,83.62
2022-09-06T11:35:18.161Z,83.9
2022-09-06T11:36:57.940Z,84.24
2022-09-06T11:38:37.699Z,84.28
2022-09-06T11:40:17.472Z,84.36
2022-09-06T11:41:57.234Z,84.23
2022-09-06T11:43:37.000Z,84.16
2022-09-06T11:46:56.544Z,84.01
2022-09-06T11:48:36.332Z,84.07
2022-09-06T11:50:16.095Z,84.05
2022-09-06T11:51:55.873Z,84
2022-09-06T11:53:35.640Z,84.02
2022-09-06T11:56:55.170Z,84.08
2022-09-06T11:58:34.945Z,84.02
2022-09-06T12:00:14.718Z,84.1
2022-09-06T12:01:54.480Z,84.14
2022-09-06T12:03:34.257Z,84.17
2022-09-06T12:05:14.013Z,84.13
2022-09-06T12:06:53.790Z,83.97
2022-09-06T12:08:33.600Z,83.95
2022-09-06T12:10:13.340Z,84.09
2022-09-06T12:11:53.099Z,84.1
2022-09-06T12:13:32.871Z,84.14
2022-09-06T12:15:12.647Z,84.12
2022-09-06T12:16:52.436Z,84.1
2022-09-06T12:18:32.200Z,84.07
2022-09-06T12:20:11.968Z,84.2
2022-09-06T12:23:31.504Z,84.41
2022-09-06T12:25:11.281Z,84.51
2022-09-06T12:26:51.044Z,84.65
2022-09-06T12:28:30.825Z,84.67
2022-09-06T12:30:10.588Z,84.79
2022-09-06T12:31:50.361Z,84.74
2022-09-06T12:33:30.116Z,84.64
2022-09-06T12:36:49.681Z,84.53
2022-09-06T12:38:29.446Z,84.62
2022-09-06T12:40:09.201Z,84.58
2022-09-06T12:41:48.978Z,84.57
2022-09-06T12:43:28.745Z,84.7
2022-09-06T12:46:48.282Z,84.55
2022-09-06T12:48:28.068Z,84.63
2022-09-06T12:50:07.840Z,84.87
2022-09-06T12:51:47.609Z,85.15
2022-09-06T12:53:27.373Z,85.48
2022-09-06T12:56:46.923Z,85.31
2022-09-06T12:58:26.675Z,85.03
2022-09-06T13:00:06.453Z,85.14
2022-09-06T13:01:46.231Z,85.39
2022-09-06T13:03:25.990Z,85.74
2022-09-06T13:05:05.760Z,85.97
2022-09-06T13:06:45.530Z,85.6
2022-09-06T13:08:25.297Z,85.51
2022-09-06T13:10:05.064Z,85.1
2022-09-06T13:11:44.886Z,85.21
2022-09-06T13:13:24.614Z,85.37
2022-09-06T13:15:04.388Z,85.28
2022-09-06T13:16:44.169Z,84.96
2022-09-06T13:18:23.927Z,84.69
2022-09-06T13:20:03.701Z,83.64
2022-09-06T13:21:43.494Z,83.98
2022-09-06T13:23:23.248Z,84.03
2022-09-06T13:26:42.767Z,84.07
2022-09-06T13:28:22.565Z,84.17
2022-09-06T13:30:02.338Z,84.15
2022-09-06T13:31:42.084Z,84.14
2022-09-06T13:33:21.862Z,84.1
2022-09-06T13:35:01.625Z,84.12
2022-09-06T13:36:41.396Z,84
2022-09-06T13:38:21.184Z,83.97
2022-09-06T13:40:00.944Z,83.98
2022-09-06T13:41:40.723Z,83.97
2022-09-06T13:43:20.478Z,83.97
2022-09-06T13:46:40.025Z,83.94
2022-09-06T13:48:19.793Z,83.96
2022-09-06T13:49:59.582Z,83.98
2022-09-06T13:53:19.099Z,84.44
2022-09-06T13:56:38.649Z,85.11
2022-09-06T13:58:18.420Z,87.34
2022-09-06T13:59:58.204Z,84.31
2022-09-06T14:01:37.969Z,86.09
2022-09-06T14:03:17.731Z,85.06
2022-09-06T14:04:57.495Z,83.3
2022-09-06T14:06:37.266Z,84.57
2022-09-06T14:08:17.049Z,83.98
2022-09-06T14:09:56.827Z,81.91
2022-09-06T14:11:36.598Z,82.5
2022-09-06T14:13:16.366Z,84.97
2022-09-06T14:14:56.163Z,83.32
2022-09-06T14:16:35.969Z,83.19
2022-09-06T14:18:15.667Z,83.43
2022-09-06T14:19:55.443Z,83.92
2022-09-06T14:21:35.216Z,83.88
2022-09-06T14:23:14.977Z,84.01
2022-09-06T14:26:34.511Z,84.16
2022-09-06T14:28:14.311Z,84.39
2022-09-06T14:29:54.051Z,85.27
2022-09-06T14:31:33.826Z,84.54
2022-09-06T14:33:13.599Z,84.49
2022-09-06T14:34:53.366Z,84.19
2022-09-06T14:36:33.150Z,84.46
2022-09-06T14:38:12.904Z,84.5
2022-09-06T14:39:52.675Z,84.58
2022-09-06T14:41:32.454Z,85.94
2022-09-06T14:43:12.225Z,84.49
2022-09-06T14:44:51.990Z,85.73
2022-09-06T14:46:31.764Z,85.72
2022-09-06T14:48:11.542Z,84.49
2022-09-06T14:49:51.315Z,84.4
2022-09-06T14:51:31.072Z,85.04
2022-09-06T14:53:10.856Z,85.03
2022-09-06T14:54:50.609Z,84.57
2022-09-06T14:56:30.393Z,83.96
2022-09-06T14:58:10.169Z,84.39
2022-09-06T14:59:49.937Z,83.84
2022-09-06T15:01:29.697Z,84.23
2022-09-06T15:03:09.473Z,84.54
2022-09-06T15:06:29.010Z,84.47
2022-09-06T15:08:08.782Z,84.23
2022-09-06T15:09:48.575Z,83.84
2022-09-06T15:11:28.313Z,84.53
2022-09-06T15:13:08.084Z,85.04
2022-09-06T15:14:47.851Z,84.95
2022-09-06T15:16:27.626Z,85.14
2022-09-06T15:18:07.414Z,84.95
2022-09-06T15:19:47.182Z,84.99
2022-09-06T15:21:26.952Z,82.74
2022-09-06T15:23:06.716Z,83.23
2022-09-06T15:28:06.038Z,84.12
2022-09-06T15:29:45.804Z,83.22
2022-09-06T15:31:25.572Z,83.33
2022-09-06T15:33:05.335Z,83.23
2022-09-06T15:34:45.102Z,83.12
2022-09-06T15:36:24.882Z,85.46
2022-09-06T15:38:04.654Z,84.03
2022-09-06T15:39:44.414Z,83.29
2022-09-06T15:41:24.198Z,82.73
2022-09-06T15:43:03.959Z,82.28
2022-09-06T15:46:23.494Z,81.46
2022-09-06T15:48:03.260Z,81.18
2022-09-06T15:49:43.036Z,81.31
2022-09-06T15:51:22.818Z,83.11
2022-09-06T15:53:02.581Z,81.6
2022-09-06T15:56:22.134Z,81.58
2022-09-06T15:58:01.902Z,81.62
2022-09-06T15:59:41.686Z,83.16
2022-09-06T16:01:21.438Z,81.67
2022-09-06T16:03:01.212Z,82.16
2022-09-06T16:06:20.759Z,81.75
2022-09-06T16:08:00.513Z,81.43
2022-09-06T16:09:40.300Z,81.28
2022-09-06T16:11:20.072Z,81.08
2022-09-06T16:12:59.838Z,80.71
2022-09-06T16:14:39.605Z,80.4
2022-09-06T16:16:19.364Z,79.98
2022-09-06T16:17:59.144Z,79.62
2022-09-06T16:19:38.918Z,79.39
2022-09-06T16:21:18.675Z,79.26
2022-09-06T16:26:17.991Z,79
2022-09-06T16:27:57.775Z,78.83
2022-09-06T16:29:37.536Z,78.65
2022-09-06T16:31:17.307Z,78.54
2022-09-06T16:32:57.079Z,78.47
2022-09-06T16:36:16.628Z,78.4
2022-09-06T16:37:56.399Z,78.31
2022-09-06T16:39:36.160Z,78.14
2022-09-06T16:41:15.922Z,77.97
2022-09-06T16:42:55.706Z,77.75
2022-09-06T16:44:35.463Z,77.44
2022-09-06T16:46:15.241Z,77.14
2022-09-06T16:47:55.015Z,76.87
2022-09-06T16:49:34.779Z,76.62
2022-09-06T16:51:14.554Z,76.31
2022-09-06T16:52:54.324Z,75.87
2022-09-06T16:54:34.086Z,75.56
2022-09-06T16:56:13.895Z,75.26
2022-09-06T16:57:53.634Z,74.9
2022-09-06T16:59:33.416Z,74.49
2022-09-06T17:01:13.170Z,73.92
2022-09-06T17:02:52.948Z,73.49
2022-09-06T17:04:32.723Z,73.05
2022-09-06T17:06:12.491Z,72.65
2022-09-06T17:07:52.251Z,72.43
2022-09-06T17:09:32.023Z,72.17
2022-09-06T17:11:11.810Z,71.58
2022-09-06T17:12:51.580Z,70.43
2022-09-06T17:14:31.333Z,67.44
2022-09-06T17:16:11.097Z,60.06
2022-09-06T17:17:50.888Z,47.52
2022-09-06T17:19:30.655Z,35.45
2022-09-06T17:21:10.467Z,34.07
2022-09-06T17:22:50.189Z,33.68
2022-09-06T17:24:29.947Z,33.47
2022-09-06T17:26:09.731Z,31.15
2022-09-06T17:27:49.489Z,27.91
2022-09-06T17:29:29.247Z,27.87
2022-09-06T17:31:09.014Z,27.83
2022-09-06T17:32:48.784Z,27.81
2022-09-06T17:34:28.570Z,27.78
2022-09-06T17:36:08.323Z,27.74
2022-09-06T17:37:48.085Z,27.71
2022-09-06T17:41:07.632Z,29.74
2022-09-06T17:42:47.403Z,27.63
2022-09-06T17:44:27.175Z,27.6
2022-09-06T17:46:06.943Z,27.6
2022-09-06T17:49:26.464Z,27.53
2022-09-06T17:51:06.228Z,27.51
2022-09-06T17:52:46.009Z,27.47
2022-09-06T17:56:05.540Z,27.34
2022-09-06T17:57:45.313Z,25.17
2022-09-06T17:59:25.069Z,21.27
2022-09-06T18:01:04.839Z,17.79
2022-09-06T18:02:44.598Z,14.89
2022-09-06T18:04:24.391Z,12.26
2022-09-06T18:06:04.145Z,9.45
2022-09-06T18:07:43.913Z,7.15
2022-09-06T18:11:03.439Z,4.23
2022-09-06T18:12:43.203Z,3.31
2022-09-06T18:16:02.743Z,2.06
2022-09-06T18:17:42.516Z,1.64
2022-09-06T18:19:22.271Z,1.31
2022-09-06T18:21:02.055Z,1.05
2022-09-06T18:22:41.822Z,0.87
2022-09-06T18:26:01.350Z,0.61
2022-09-06T18:27:41.119Z,0.48
2022-09-06T18:29:20.917Z,0.41
2022-09-06T18:31:00.661Z,0.34
2022-09-06T18:32:40.414Z,0.31
2022-09-06T18:34:20.191Z,0.24
2022-09-06T18:35:59.955Z,0.25
2022-09-06T18:37:39.742Z,0.24
2022-09-06T18:39:19.484Z,0.24
2022-09-06T18:40:59.249Z,0.21
2022-09-06T18:42:39.032Z,0.2
2022-09-06T18:44:18.849Z,0.2
2022-09-06T18:45:58.559Z,0.23
2022-09-06T18:47:38.338Z,0.2
2022-09-06T18:49:18.087Z,0.21
2022-09-06T18:50:57.872Z,0.19
2022-09-06T18:52:37.630Z,0.19
2022-09-06T18:55:57.169Z,0.19
2022-09-06T18:57:36.927Z,0.21
2022-09-06T18:59:16.715Z,0.2
2022-09-06T19:00:56.468Z,0.21
2022-09-06T19:02:36.228Z,0.18
2022-09-06T19:04:16.089Z,0.19
2022-09-06T19:05:55.774Z,0.2
2022-09-06T19:07:35.539Z,0.17
2022-09-06T19:09:15.315Z,0.19
2022-09-06T19:10:55.072Z,0.18
2022-09-06T19:12:34.866Z,0.18
2022-09-06T19:14:14.617Z,0.2
2022-09-06T19:15:54.373Z,0.2
2022-09-06T19:17:34.145Z,0.18
2022-09-06T19:19:13.908Z,0.22
2022-09-06T19:20:53.687Z,0.22
2022-09-06T19:22:33.454Z,0.19
2022-09-06T19:25:52.992Z,0.2
2022-09-06T19:27:32.742Z,0.22
2022-09-06T19:29:12.517Z,0.19
2022-09-06T19:30:52.289Z,0.21
2022-09-06T19:32:32.054Z,0.22
2022-09-06T19:35:51.582Z,0.19
2022-09-06T19:37:31.345Z,0.19
2022-09-06T19:39:11.115Z,0.2
2022-09-06T19:40:50.902Z,0.21
2022-09-06T19:42:30.660Z,0.2
2022-09-06T19:45:50.183Z,0.21
2022-09-06T19:47:29.956Z,0.21
2022-09-06T19:49:09.728Z,0.23
2022-09-06T19:50:49.496Z,0.21
2022-09-06T19:52:29.270Z,0.22
2022-09-06T19:54:09.035Z,0.21
2022-09-06T19:55:48.786Z,0.21
2022-09-06T19:57:28.566Z,0.23
2022-09-06T19:59:08.341Z,0.22
2022-09-06T20:02:27.861Z,0.2
2022-09-06T20:05:47.392Z,0.21
2022-09-06T20:07:27.175Z,0.2
2022-09-06T20:09:06.941Z,0.21
2022-09-06T20:10:46.713Z,0.2
2022-09-06T20:12:26.486Z,0.19
2022-09-06T20:14:06.243Z,0.22
2022-09-06T20:15:46.012Z,0.22
2022-09-06T20:17:25.767Z,0.22
2022-09-06T20:19:05.550Z,0.22
2022-09-06T20:20:45.314Z,0.2
2022-09-06T20:22:25.082Z,0.2
2022-09-06T20:25:44.621Z,0.21
2022-09-06T20:27:24.388Z,0.2
2022-09-06T20:29:04.178Z,0.21
2022-09-06T20:30:43.920Z,0.19
2022-09-06T20:32:23.695Z,0.19
2022-09-06T20:34:03.453Z,0.2
2022-09-06T20:35:43.222Z,0.21
2022-09-06T20:37:22.985Z,0.22
2022-09-06T20:39:02.759Z,0.19
2022-09-06T20:40:42.526Z,0.19
2022-09-06T20:42:22.277Z,0.23
2022-09-06T20:45:41.831Z,0.21
2022-09-06T20:47:21.589Z,0.2
2022-09-06T20:49:01.357Z,0.23
2022-09-06T20:50:41.135Z,0.21
2022-09-06T20:52:20.890Z,0.2
2022-09-06T20:55:40.425Z,0.19
2022-09-06T20:57:20.254Z,0.21
2022-09-06T20:58:59.968Z,0.23
2022-09-06T21:00:39.729Z,0.19
2022-09-06T21:02:19.500Z,0.23
2022-09-06T21:05:39.022Z,0.23
2022-09-06T21:07:18.797Z,0.21
2022-09-06T21:08:58.579Z,0.21
2022-09-06T21:10:38.341Z,0.21
2022-09-06T21:12:18.110Z,0.21
2022-09-06T21:13:57.869Z,0.21
2022-09-06T21:15:37.645Z,0.22
2022-09-06T21:17:17.412Z,0.21
2022-09-06T21:18:57.179Z,0.22
2022-09-06T21:20:36.950Z,0.23
2022-09-06T21:22:16.711Z,0.2
2022-09-06T21:23:56.476Z,0.2
2022-09-06T21:25:36.244Z,0.19
2022-09-06T21:27:16.005Z,0.2
2022-09-06T21:28:55.776Z,0.19
2022-09-06T21:30:35.551Z,0.2
2022-09-06T21:32:15.304Z,0.21
2022-09-06T21:33:55.091Z,0.21
2022-09-06T21:35:34.860Z,0.19
2022-09-06T21:37:14.624Z,0.18
2022-09-06T21:38:54.387Z,0.2
2022-09-06T21:40:34.145Z,0.18
2022-09-06T21:42:13.918Z,0.19
2022-09-06T21:43:53.686Z,0.2
2022-09-06T21:45:33.444Z,0.22
2022-09-06T21:47:13.213Z,0.18
2022-09-06T21:48:52.985Z,0.21
2022-09-06T21:50:32.759Z,0.19
2022-09-06T21:52:12.529Z,0.2
2022-09-06T21:55:32.059Z,0.22
2022-09-06T21:57:11.825Z,0.2
2022-09-06T21:58:51.588Z,0.23
2022-09-06T22:00:31.359Z,0.22
2022-09-06T22:02:11.120Z,0.22
2022-09-06T22:03:50.902Z,0.19
2022-09-06T22:05:30.653Z,0.23
2022-09-06T22:07:10.444Z,0.24
2022-09-06T22:08:50.203Z,0.24
2022-09-06T22:10:29.977Z,0.22
2022-09-06T22:12:09.744Z,0.24
2022-09-06T22:13:49.495Z,0.23
2022-09-06T22:15:29.281Z,0.21
2022-09-06T22:17:09.047Z,0.21
2022-09-06T22:20:28.569Z,0.23
2022-09-06T22:25:27.919Z,0.23
2022-09-06T22:27:07.651Z,0.23
2022-09-06T22:28:47.399Z,0.23
2022-09-06T22:30:27.221Z,0.2
2022-09-06T22:32:06.951Z,0.23
2022-09-06T22:33:46.712Z,0.21
2022-09-06T22:37:06.254Z,0.22
2022-09-06T22:38:46.023Z,0.2
2022-09-06T22:40:25.790Z,0.2
2022-09-06T22:42:05.541Z,0.19
2022-09-06T22:45:25.090Z,0.21
2022-09-06T22:47:04.867Z,0.18
2022-09-06T22:48:44.640Z,0.18
2022-09-06T22:50:24.381Z,0.2
2022-09-06T22:52:04.159Z,0.21
2022-09-06T22:53:43.918Z,0.2
2022-09-06T22:55:23.693Z,0.19
2022-09-06T22:57:03.465Z,0.17
2022-09-06T22:58:43.222Z,0.19
2022-09-06T23:00:23.041Z,0.18
2022-09-06T23:02:02.760Z,0.17
2022-09-06T23:03:42.537Z,0.18
2022-09-06T23:05:22.300Z,0.18
2022-09-06T23:07:02.064Z,0.19
2022-09-06T23:08:41.824Z,0.19
2022-09-06T23:10:21.596Z,0.17
2022-09-06T23:12:01.373Z,0.18
2022-09-06T23:13:41.140Z,0.19
2022-09-06T23:15:20.900Z,0.19
2022-09-06T23:17:00.676Z,0.17
2022-09-06T23:18:40.455Z,0.19
2022-09-06T23:20:20.208Z,0.17
2022-09-06T23:21:59.958Z,0.17
2022-09-06T23:25:19.494Z,0.18
2022-09-06T23:26:59.304Z,0.17
2022-09-06T23:28:39.036Z,0.18
2022-09-06T23:30:18.811Z,0.17
2022-09-06T23:31:58.572Z,0.17
2022-09-06T23:33:38.348Z,0.17
2022-09-06T23:35:18.111Z,0.17
2022-09-06T23:36:57.877Z,0.17
2022-09-06T23:38:37.646Z,0.17
2022-09-06T23:40:17.403Z,0.16
2022-09-06T23:41:57.173Z,0.19
2022-09-06T23:45:16.702Z,0.19
2022-09-06T23:46:56.481Z,0.19
2022-09-06T23:48:36.255Z,0.17
2022-09-06T23:50:16.023Z,0.16
2022-09-06T23:51:55.794Z,0.17
2022-09-06T23:53:35.547Z,0.17
2022-09-06T23:55:15.308Z,0.19
2022-09-06T23:56:55.096Z,0.2
2022-09-06T23:58:34.857Z,0.18
